createdAt,value
2018-09-03T00:00:35.865Z,6.80
2018-09-03T00:03:03.270Z,7.17
2018-09-03T00:05:30.673Z,6.67
2018-09-03T00:07:58.101Z,8.67
2018-09-03T00:10:25.499Z,6.47
2018-09-03T00:12:52.924Z,5.17
2018-09-03T00:15:20.350Z,6.93
2018-09-03T00:17:47.747Z,6.63
2018-09-03T00:20:15.151Z,8.70
2018-09-03T00:22:42.585Z,7.90
2018-09-03T00:25:10.002Z,5.97
2018-09-03T00:27:37.404Z,5.93
2018-09-03T00:30:04.832Z,5.60
2018-09-03T00:32:41.234Z,7.97
2018-09-03T00:35:17.934Z,9.47
2018-09-03T00:37:45.332Z,7.47
2018-09-03T00:40:18.279Z,6.60
2018-09-03T00:42:45.700Z,6.87
2018-09-03T00:45:31.292Z,8.60
2018-09-03T00:47:58.709Z,6.43
2018-09-03T00:50:26.120Z,6.10
2018-09-03T00:52:53.539Z,8.33
2018-09-03T00:55:20.963Z,5.70
2018-09-03T00:57:48.384Z,7.10
2018-09-03T01:00:15.816Z,7.23
2018-09-03T01:02:43.250Z,8.20
2018-09-03T01:05:10.675Z,5.70
2018-09-03T01:07:38.090Z,5.70
2018-09-03T01:10:05.514Z,6.40
2018-09-03T01:12:32.905Z,8.30
2018-09-03T01:15:00.337Z,5.53
2018-09-03T01:17:27.729Z,7.00
2018-09-03T01:19:55.155Z,7.47
2018-09-03T01:22:22.567Z,8.20
2018-09-03T01:24:49.992Z,6.17
2018-09-03T01:27:17.419Z,5.83
2018-09-03T01:29:44.900Z,6.83
2018-09-03T01:32:12.254Z,8.30
2018-09-03T01:34:39.651Z,5.77
2018-09-03T01:37:07.097Z,6.77
2018-09-03T01:39:34.497Z,6.67
2018-09-03T01:42:01.916Z,7.23
2018-09-03T01:44:29.321Z,6.27
2018-09-03T01:46:56.734Z,5.40
2018-09-03T01:49:24.137Z,6.43
2018-09-03T01:51:51.584Z,6.23
2018-09-03T01:54:18.991Z,5.93
2018-09-03T01:56:46.406Z,9.50
2018-09-03T01:59:13.811Z,8.57
2018-09-03T02:01:41.243Z,6.10
2018-09-03T02:04:08.634Z,7.13
2018-09-03T02:06:36.076Z,7.57
2018-09-03T02:09:03.461Z,7.30
2018-09-03T02:11:30.929Z,7.03
2018-09-03T02:13:58.288Z,5.87
2018-09-03T02:16:25.720Z,8.00
2018-09-03T02:18:54.302Z,6.17
2018-09-03T02:21:20.543Z,7.43
2018-09-03T02:23:47.945Z,8.70
2018-09-03T02:26:15.369Z,8.10
2018-09-03T02:28:42.783Z,8.87
2018-09-03T02:31:10.213Z,9.13
2018-09-03T02:33:37.660Z,8.87
2018-09-03T02:36:05.027Z,8.73
2018-09-03T02:38:32.467Z,11.33
2018-09-03T02:40:59.859Z,9.97
2018-09-03T02:43:27.292Z,10.57
2018-09-03T02:45:54.698Z,10.67
2018-09-03T02:48:22.122Z,14.43
2018-09-03T02:50:49.541Z,15.40
2018-09-03T02:53:16.963Z,20.87
2018-09-03T02:55:44.398Z,20.47
2018-09-03T02:58:11.815Z,18.93
2018-09-03T03:00:39.247Z,20.27
2018-09-03T03:03:06.683Z,19.00
2018-09-03T03:05:34.111Z,19.93
2018-09-03T03:08:01.516Z,20.00
2018-09-03T03:10:28.943Z,17.80
2018-09-03T03:12:56.358Z,20.37
2018-09-03T03:15:23.833Z,17.70
2018-09-03T03:17:51.199Z,19.10
2018-09-03T03:20:18.638Z,20.47
2018-09-03T03:22:46.050Z,17.53
2018-09-03T03:25:13.476Z,16.77
2018-09-03T03:27:40.897Z,18.23
2018-09-03T03:30:08.365Z,16.57
2018-09-03T03:32:35.771Z,15.10
2018-09-03T03:35:03.191Z,15.87
2018-09-03T03:37:30.619Z,18.07
2018-09-03T03:39:58.033Z,14.30
2018-09-03T03:42:25.455Z,18.37
2018-09-03T03:44:52.861Z,14.67
2018-09-03T03:47:20.297Z,15.37
2018-09-03T03:49:47.731Z,18.33
2018-09-03T03:52:15.173Z,13.63
2018-09-03T03:54:42.590Z,14.97
2018-09-03T03:57:09.992Z,13.30
2018-09-03T03:59:37.424Z,16.57
2018-09-03T04:02:04.899Z,13.13
2018-09-03T04:04:32.275Z,15.30
2018-09-03T04:06:59.709Z,14.27
2018-09-03T04:09:27.148Z,11.63
2018-09-03T04:11:54.563Z,12.67
2018-09-03T04:14:21.989Z,12.50
2018-09-03T04:16:49.426Z,12.57
2018-09-03T04:19:16.824Z,15.63
2018-09-03T04:21:44.254Z,12.73
2018-09-03T04:24:11.670Z,12.97
2018-09-03T04:26:39.068Z,13.00
2018-09-03T04:29:06.489Z,11.60
2018-09-03T04:31:33.888Z,12.20
2018-09-03T04:34:01.314Z,14.87
2018-09-03T04:36:28.721Z,11.53
2018-09-03T04:38:56.156Z,13.00
2018-09-03T04:41:23.565Z,14.93
2018-09-03T04:43:51.004Z,13.27
2018-09-03T04:46:18.417Z,11.87
2018-09-03T04:48:45.860Z,10.17
2018-09-03T04:51:13.264Z,12.13
2018-09-03T04:53:40.684Z,15.13
2018-09-03T04:56:08.115Z,16.10
2018-09-03T04:58:35.531Z,13.17
2018-09-03T05:01:02.975Z,12.57
2018-09-03T05:03:30.377Z,23.97
2018-09-03T05:05:57.834Z,11.90
2018-09-03T05:08:25.219Z,12.53
2018-09-03T05:10:52.655Z,13.67
2018-09-03T05:13:20.066Z,12.73
2018-09-03T05:15:47.500Z,10.00
2018-09-03T05:18:14.914Z,11.27
2018-09-03T05:20:42.328Z,13.07
2018-09-03T05:23:09.737Z,11.33
2018-09-03T05:25:37.171Z,12.87
2018-09-03T05:28:04.582Z,11.20
2018-09-03T05:30:32.007Z,13.87
2018-09-03T05:32:59.417Z,15.40
2018-09-03T05:35:26.852Z,17.03
2018-09-03T05:37:54.268Z,20.55
2018-09-03T05:40:21.715Z,17.67
2018-09-03T05:42:49.126Z,19.50
2018-09-03T05:45:16.539Z,20.33
2018-09-03T05:47:43.973Z,16.40
2018-09-03T05:50:11.422Z,14.53
2018-09-03T05:52:38.821Z,18.87
2018-09-03T05:55:06.228Z,17.37
2018-09-03T05:57:33.655Z,18.23
2018-09-03T06:00:01.064Z,14.43
2018-09-03T06:02:28.494Z,14.23
2018-09-03T06:04:55.985Z,14.50
2018-09-03T06:07:23.328Z,17.50
2018-09-03T06:09:50.736Z,13.70
2018-09-03T06:12:18.172Z,14.43
2018-09-03T06:14:45.578Z,14.27
2018-09-03T06:17:13.040Z,13.90
2018-09-03T06:19:40.506Z,14.93
2018-09-03T06:22:07.964Z,14.43
2018-09-03T06:24:35.378Z,15.17
2018-09-03T06:27:02.815Z,14.70
2018-09-03T06:29:30.222Z,17.27
2018-09-03T06:31:57.663Z,14.33
2018-09-03T06:34:25.066Z,16.53
2018-09-03T06:36:52.481Z,16.77
2018-09-03T06:39:19.947Z,15.73
2018-09-03T06:41:47.326Z,20.20
2018-09-03T06:44:14.764Z,16.03
2018-09-03T06:46:42.213Z,14.47
2018-09-03T06:49:09.667Z,16.77
2018-09-03T06:51:37.078Z,17.33
2018-09-03T06:54:04.511Z,18.00
2018-09-03T06:56:31.937Z,17.53
2018-09-03T06:58:59.338Z,15.87
2018-09-03T07:01:26.781Z,14.90
2018-09-03T07:03:54.214Z,16.90
2018-09-03T07:06:21.651Z,16.77
2018-09-03T07:08:49.060Z,18.83
2018-09-03T07:11:16.482Z,16.87
2018-09-03T07:13:44.049Z,19.10
2018-09-03T07:16:11.504Z,23.80
2018-09-03T07:18:38.986Z,17.90
2018-09-03T07:21:06.370Z,17.73
2018-09-03T07:23:33.812Z,19.63
2018-09-03T07:26:01.219Z,17.23
2018-09-03T07:28:28.633Z,19.53
2018-09-03T07:30:56.052Z,18.10
2018-09-03T07:33:23.481Z,18.73
2018-09-03T07:35:50.900Z,17.23
2018-09-03T07:38:18.358Z,17.43
2018-09-03T07:40:45.765Z,16.40
2018-09-03T07:43:13.205Z,17.53
2018-09-03T07:45:40.642Z,18.40
2018-09-03T07:48:08.099Z,16.20
2018-09-03T07:50:35.528Z,18.53
2018-09-03T07:53:02.948Z,17.53
2018-09-03T07:55:30.380Z,20.10
2018-09-03T07:57:57.792Z,15.67
2018-09-03T08:00:25.245Z,14.43
2018-09-03T08:02:52.645Z,15.97
2018-09-03T08:05:20.110Z,17.57
2018-09-03T08:07:47.519Z,16.67
2018-09-03T08:10:14.953Z,16.73
2018-09-03T08:12:42.375Z,17.30
2018-09-03T08:15:09.805Z,16.17
2018-09-03T08:17:37.270Z,15.33
2018-09-03T08:20:04.754Z,16.17
2018-09-03T08:22:32.092Z,16.87
2018-09-03T08:24:59.521Z,15.30
2018-09-03T08:27:26.937Z,14.67
2018-09-03T08:29:54.369Z,16.73
2018-09-03T08:32:21.810Z,17.37
2018-09-03T08:34:49.215Z,15.63
2018-09-03T08:37:16.635Z,16.50
2018-09-03T08:39:46.978Z,14.30
2018-09-03T08:42:14.343Z,16.60
2018-09-03T08:44:41.798Z,13.27
2018-09-03T08:47:09.228Z,15.23
2018-09-03T08:49:36.642Z,15.87
2018-09-03T08:52:04.092Z,16.00
2018-09-03T08:54:31.500Z,12.33
2018-09-03T08:56:58.939Z,16.50
2018-09-03T08:59:26.348Z,13.87
2018-09-03T09:01:53.780Z,16.90
2018-09-03T09:04:21.200Z,17.30
2018-09-03T09:06:48.599Z,16.27
2018-09-03T09:09:16.046Z,20.03
2018-09-03T09:11:43.611Z,14.60
2018-09-03T09:14:11.005Z,12.80
2018-09-03T09:16:38.441Z,16.57
2018-09-03T09:19:05.895Z,16.30
2018-09-03T09:21:33.365Z,15.73
2018-09-03T09:24:00.783Z,14.97
2018-09-03T09:26:28.207Z,14.37
2018-09-03T09:28:55.680Z,15.80
2018-09-03T09:31:23.066Z,13.17
2018-09-03T09:33:50.516Z,13.80
2018-09-03T09:36:18.000Z,14.33
2018-09-03T09:38:45.445Z,13.10
2018-09-03T09:41:12.894Z,14.17
2018-09-03T09:43:40.336Z,16.00
2018-09-03T09:46:07.750Z,16.67
2018-09-03T09:48:35.213Z,14.87
2018-09-03T09:51:02.613Z,14.37
2018-09-03T09:53:30.029Z,14.17
2018-09-03T09:55:57.481Z,14.23
2018-09-03T09:58:24.913Z,12.43
2018-09-03T10:00:52.317Z,16.30
2018-09-03T10:03:39.391Z,13.03
2018-09-03T10:06:06.816Z,12.47
2018-09-03T10:08:34.334Z,12.73
2018-09-03T10:11:01.792Z,15.37
2018-09-03T10:13:29.204Z,15.13
2018-09-03T10:15:56.639Z,12.90
2018-09-03T10:18:24.054Z,12.63
2018-09-03T10:20:51.505Z,15.73
2018-09-03T10:23:18.995Z,16.53
2018-09-03T10:25:49.232Z,14.93
2018-09-03T10:28:16.638Z,12.20
2018-09-03T10:30:44.138Z,12.00
2018-09-03T10:33:11.566Z,11.80
2018-09-03T10:35:39.009Z,10.13
2018-09-03T10:38:06.455Z,10.37
2018-09-03T10:40:33.828Z,11.47
2018-09-03T10:43:01.267Z,13.33
2018-09-03T10:45:28.725Z,13.43
2018-09-03T10:47:56.163Z,10.50
2018-09-03T10:50:23.592Z,14.63
2018-09-03T10:52:51.027Z,11.27
2018-09-03T10:55:18.460Z,14.13
2018-09-03T10:57:45.936Z,16.90
2018-09-03T11:00:13.339Z,13.63
2018-09-03T11:02:40.766Z,16.27
2018-09-03T11:05:08.204Z,14.87
2018-09-03T11:07:35.652Z,14.10
2018-09-03T11:10:03.097Z,14.97
2018-09-03T11:12:30.553Z,14.23
2018-09-03T11:14:57.987Z,12.70
2018-09-03T11:17:25.418Z,13.93
2018-09-03T11:19:52.841Z,17.37
2018-09-03T11:22:20.306Z,15.13
2018-09-03T11:24:47.693Z,14.20
2018-09-03T11:27:15.099Z,12.20
2018-09-03T11:29:42.519Z,12.33
2018-09-03T11:32:09.964Z,10.07
2018-09-03T11:34:37.435Z,14.00
2018-09-03T11:37:04.873Z,13.57
2018-09-03T11:39:32.306Z,14.93
2018-09-03T11:41:59.735Z,14.70
2018-09-03T11:44:27.162Z,18.17
2018-09-03T11:46:54.584Z,15.63
2018-09-03T11:49:22.041Z,12.87
2018-09-03T11:51:49.438Z,12.07
2018-09-03T11:54:16.856Z,15.20
2018-09-03T11:56:44.295Z,12.47
2018-09-03T11:59:11.703Z,15.07
2018-09-03T12:01:39.159Z,14.40
2018-09-03T12:04:06.595Z,12.70
2018-09-03T12:06:34.065Z,12.53
2018-09-03T12:09:01.492Z,13.90
2018-09-03T12:11:28.929Z,13.90
2018-09-03T12:13:56.346Z,14.67
2018-09-03T12:16:23.853Z,14.37
2018-09-03T12:18:51.270Z,16.00
2018-09-03T12:21:18.685Z,14.43
2018-09-03T12:23:46.217Z,14.83
2018-09-03T12:26:13.704Z,15.90
2018-09-03T12:28:41.145Z,18.10
2018-09-03T12:31:08.591Z,16.23
2018-09-03T12:33:35.987Z,17.57
2018-09-03T12:36:03.405Z,16.67
2018-09-03T12:38:30.851Z,16.33
2018-09-03T12:40:58.258Z,19.47
2018-09-03T12:43:25.720Z,16.60
2018-09-03T12:45:53.135Z,17.27
2018-09-03T12:48:20.584Z,14.73
2018-09-03T12:50:48.025Z,17.00
2018-09-03T12:53:15.465Z,16.17
2018-09-03T12:55:42.895Z,15.30
2018-09-03T12:58:10.334Z,14.37
2018-09-03T13:00:38.672Z,18.23
2018-09-03T13:03:05.228Z,17.37
2018-09-03T13:05:32.589Z,21.27
2018-09-03T13:08:00.033Z,17.30
2018-09-03T13:10:27.445Z,15.40
2018-09-03T13:12:54.866Z,15.73
2018-09-03T13:15:22.314Z,16.77
2018-09-03T13:17:49.761Z,21.23
2018-09-03T13:20:17.203Z,16.27
2018-09-03T13:22:44.612Z,15.83
2018-09-03T13:25:12.037Z,19.30
2018-09-03T13:27:39.486Z,15.47
2018-09-03T13:30:07.860Z,14.97
2018-09-03T13:32:35.338Z,16.00
2018-09-03T13:35:02.740Z,19.33
2018-09-03T13:37:30.164Z,17.97
2018-09-03T13:39:57.601Z,16.37
2018-09-03T13:42:25.063Z,17.27
2018-09-03T13:44:52.487Z,15.17
2018-09-03T13:47:19.918Z,16.47
2018-09-03T13:49:47.410Z,18.50
2018-09-03T13:52:14.839Z,16.10
2018-09-03T13:54:42.257Z,16.93
2018-09-03T13:57:09.694Z,17.63
2018-09-03T13:59:37.120Z,16.67
2018-09-03T14:02:04.559Z,19.53
2018-09-03T14:04:31.971Z,14.73
2018-09-03T14:06:59.424Z,17.47
2018-09-03T14:09:26.834Z,16.83
2018-09-03T14:11:54.231Z,17.07
2018-09-03T14:14:21.682Z,15.13
2018-09-03T14:16:49.111Z,13.87
2018-09-03T14:19:16.546Z,16.50
2018-09-03T14:21:43.954Z,17.70
2018-09-03T14:24:11.393Z,18.93
2018-09-03T14:26:38.833Z,15.20
2018-09-03T14:29:06.296Z,15.73
2018-09-03T14:31:33.704Z,12.17
2018-09-03T14:34:01.170Z,14.40
2018-09-03T14:36:28.589Z,12.07
2018-09-03T14:38:56.009Z,10.87
2018-09-03T14:41:23.480Z,13.07
2018-09-03T14:43:50.933Z,16.10
2018-09-03T14:46:18.400Z,14.80
2018-09-03T14:48:45.809Z,12.97
2018-09-03T14:51:13.438Z,11.97
2018-09-03T14:53:40.862Z,12.73
2018-09-03T14:56:08.333Z,13.67
2018-09-03T14:58:35.725Z,13.83
2018-09-03T15:01:03.156Z,13.33
2018-09-03T15:03:30.578Z,13.10
2018-09-03T15:05:58.020Z,11.73
2018-09-03T15:08:25.507Z,14.13
2018-09-03T15:10:52.916Z,12.50
2018-09-03T15:13:20.352Z,12.70
2018-09-03T15:15:47.792Z,13.57
2018-09-03T15:18:15.226Z,15.10
2018-09-03T15:20:42.734Z,16.80
2018-09-03T15:23:10.077Z,22.00
2018-09-03T15:25:37.536Z,16.33
2018-09-03T15:28:04.956Z,15.47
2018-09-03T15:30:32.404Z,15.43
2018-09-03T15:32:59.824Z,14.37
2018-09-03T15:35:27.372Z,12.13
2018-09-03T15:37:54.825Z,13.30
2018-09-03T15:40:22.313Z,14.07
2018-09-03T15:42:49.821Z,15.57
2018-09-03T15:45:17.185Z,13.60
2018-09-03T15:47:44.635Z,14.25
2018-09-03T15:50:12.066Z,15.47
2018-09-03T15:52:39.520Z,15.60
2018-09-03T15:55:06.933Z,14.97
2018-09-03T15:57:34.396Z,17.83
2018-09-03T16:00:01.815Z,15.60
2018-09-03T16:02:29.253Z,15.03
2018-09-03T16:04:56.792Z,16.20
2018-09-03T16:07:24.223Z,14.83
2018-09-03T16:09:51.670Z,14.17
2018-09-03T16:12:19.196Z,15.17
2018-09-03T16:14:46.661Z,18.20
2018-09-03T16:17:14.080Z,15.07
2018-09-03T16:19:41.523Z,16.30
2018-09-03T16:22:08.946Z,17.23
2018-09-03T16:24:36.371Z,17.90
2018-09-03T16:27:03.828Z,16.73
2018-09-03T16:29:31.276Z,17.63
2018-09-03T16:31:58.732Z,19.20
2018-09-03T16:34:26.159Z,20.13
2018-09-03T16:36:53.590Z,20.70
2018-09-03T16:39:21.035Z,20.83
2018-09-03T16:41:48.487Z,22.47
2018-09-03T16:44:15.950Z,24.43
2018-09-03T16:46:43.411Z,21.17
2018-09-03T16:49:10.953Z,22.93
2018-09-03T16:51:38.266Z,23.03
2018-09-03T16:54:05.707Z,24.70
2018-09-03T16:56:33.120Z,23.80
2018-09-03T16:59:00.557Z,22.03
2018-09-03T17:01:28.265Z,23.87
2018-09-03T17:03:55.433Z,22.27
2018-09-03T17:06:22.880Z,20.10
2018-09-03T17:08:50.297Z,20.53
2018-09-03T17:11:17.741Z,21.77
2018-09-03T17:13:45.168Z,20.33
2018-09-03T17:16:12.611Z,21.17
2018-09-03T17:18:40.062Z,23.50
2018-09-03T17:21:07.509Z,22.47
2018-09-03T17:23:34.952Z,23.53
2018-09-03T17:26:02.379Z,24.03
2018-09-03T17:28:29.830Z,21.27
2018-09-03T17:30:57.248Z,21.17
2018-09-03T17:33:24.684Z,21.57
2018-09-03T17:35:52.140Z,20.40
2018-09-03T17:38:19.666Z,24.57
2018-09-03T17:40:47.122Z,19.33
2018-09-03T17:43:14.524Z,22.57
2018-09-03T17:45:41.977Z,21.50
2018-09-03T17:48:09.357Z,18.67
2018-09-03T17:50:36.795Z,22.83
2018-09-03T17:53:04.251Z,17.03
2018-09-03T17:55:31.673Z,19.27
2018-09-03T17:57:59.111Z,19.97
2018-09-03T18:00:26.536Z,18.90
2018-09-03T18:02:53.982Z,19.20
2018-09-03T18:05:21.473Z,20.07
2018-09-03T18:07:48.856Z,20.30
2018-09-03T18:10:16.316Z,17.93
2018-09-03T18:12:43.757Z,18.20
2018-09-03T18:15:11.201Z,19.13
2018-09-03T18:17:38.614Z,17.33
2018-09-03T18:20:06.022Z,21.53
2018-09-03T18:22:33.461Z,22.07
2018-09-03T18:25:00.867Z,20.10
2018-09-03T18:27:28.312Z,19.07
2018-09-03T18:29:55.718Z,20.00
2018-09-03T18:32:23.178Z,18.70
2018-09-03T18:34:50.604Z,18.57
2018-09-03T18:37:18.013Z,25.37
2018-09-03T18:39:45.455Z,22.33
2018-09-03T18:42:12.866Z,25.10
2018-09-03T18:44:40.280Z,23.63
2018-09-03T18:47:07.723Z,24.23
2018-09-03T18:49:35.165Z,22.43
2018-09-03T18:52:02.569Z,24.93
2018-09-03T18:54:29.999Z,22.83
2018-09-03T18:56:57.410Z,27.53
2018-09-03T18:59:24.854Z,28.67
2018-09-03T19:01:52.289Z,27.67
2018-09-03T19:04:19.704Z,23.17
2018-09-03T19:06:47.114Z,29.07
2018-09-03T19:09:14.558Z,25.47
2018-09-03T19:11:41.981Z,26.77
2018-09-03T19:14:09.394Z,28.30
2018-09-03T19:16:36.820Z,26.63
2018-09-03T19:19:04.248Z,31.60
2018-09-03T19:21:31.649Z,31.57
2018-09-03T19:23:59.087Z,31.20
2018-09-03T19:26:26.522Z,26.87
2018-09-03T19:28:53.947Z,31.27
2018-09-03T19:31:21.374Z,30.27
2018-09-03T19:33:48.807Z,31.00
2018-09-03T19:36:16.263Z,27.33
2018-09-03T19:38:43.676Z,27.97
2018-09-03T19:41:11.217Z,28.93
2018-09-03T19:43:38.660Z,31.00
2018-09-03T19:46:06.080Z,29.77
2018-09-03T19:48:33.553Z,31.77
2018-09-03T19:51:00.934Z,30.23
2018-09-03T19:53:28.370Z,30.43
2018-09-03T19:55:55.800Z,30.23
2018-09-03T19:58:23.242Z,34.93
2018-09-03T20:00:50.689Z,31.70
2018-09-03T20:03:18.169Z,31.47
2018-09-03T20:05:45.581Z,29.87
2018-09-03T20:08:13.016Z,32.13
2018-09-03T20:10:40.537Z,36.10
2018-09-03T20:13:07.969Z,29.77
2018-09-03T20:15:35.467Z,34.23
2018-09-03T20:18:02.899Z,35.33
2018-09-03T20:20:30.320Z,35.33
2018-09-03T20:22:57.788Z,34.13
2018-09-03T20:25:25.201Z,38.17
2018-09-03T20:27:52.642Z,37.60
2018-09-03T20:30:20.118Z,34.23
2018-09-03T20:32:47.611Z,39.07
2018-09-03T20:35:15.068Z,39.60
2018-09-03T20:37:42.501Z,38.17
2018-09-03T20:40:10.151Z,41.73
2018-09-03T20:42:37.611Z,33.17
2018-09-03T20:45:04.991Z,37.40
2018-09-03T20:47:32.439Z,39.47
2018-09-03T20:49:59.871Z,38.70
2018-09-03T20:52:27.281Z,37.97
2018-09-03T20:54:54.907Z,34.23
2018-09-03T20:57:22.349Z,40.27
2018-09-03T20:59:49.818Z,38.80
2018-09-03T21:02:17.276Z,35.60
2018-09-03T21:04:44.689Z,37.80
2018-09-03T21:07:12.122Z,45.13
2018-09-03T21:09:39.588Z,42.30
2018-09-03T21:12:07.137Z,38.27
2018-09-03T21:14:34.503Z,39.63
2018-09-03T21:17:01.914Z,39.90
2018-09-03T21:19:29.411Z,42.50
2018-09-03T21:21:56.894Z,43.17
2018-09-03T21:24:24.284Z,43.00
2018-09-03T21:26:51.739Z,43.63
2018-09-03T21:29:19.191Z,47.17
2018-09-03T21:31:46.608Z,47.63
2018-09-03T21:34:14.086Z,46.67
2018-09-03T21:36:41.494Z,44.80
2018-09-03T21:39:09.019Z,46.03
2018-09-03T21:41:36.369Z,53.53
2018-09-03T21:44:03.795Z,56.30
2018-09-03T21:46:31.238Z,45.70
2018-09-03T21:48:58.658Z,51.47
2018-09-03T21:51:26.096Z,49.17
2018-09-03T21:53:53.507Z,54.33
2018-09-03T21:56:20.961Z,54.77
2018-09-03T21:58:48.421Z,53.50
2018-09-03T22:01:15.851Z,58.17
2018-09-03T22:03:43.288Z,54.97
2018-09-03T22:06:10.700Z,53.30
2018-09-03T22:08:38.168Z,59.10
2018-09-03T22:11:05.582Z,58.37
2018-09-03T22:13:33.019Z,54.30
2018-09-03T22:16:00.440Z,53.83
2018-09-03T22:18:27.883Z,51.23
2018-09-03T22:20:55.319Z,55.33
2018-09-03T22:23:22.749Z,52.90
2018-09-03T22:25:50.219Z,62.27
2018-09-03T22:28:17.624Z,60.73
2018-09-03T22:30:45.066Z,55.73
2018-09-03T22:33:12.495Z,58.97
2018-09-03T22:35:39.932Z,47.00
2018-09-03T22:38:07.344Z,58.80
2018-09-03T22:40:34.778Z,57.17
2018-09-03T22:43:02.224Z,57.90
2018-09-03T22:45:29.693Z,53.73
2018-09-03T22:47:57.122Z,58.03
2018-09-03T22:50:24.537Z,61.40
2018-09-03T22:52:51.944Z,57.30
2018-09-03T22:55:19.400Z,63.57
2018-09-03T22:57:46.793Z,63.07
2018-09-03T23:00:14.209Z,58.87
2018-09-03T23:02:41.641Z,64.00
2018-09-03T23:05:09.087Z,66.87
2018-09-03T23:07:36.642Z,64.93
2018-09-03T23:10:04.049Z,58.03
2018-09-03T23:12:31.482Z,58.63
2018-09-03T23:14:58.890Z,62.93
2018-09-03T23:17:26.326Z,58.27
2018-09-03T23:19:53.732Z,63.53
2018-09-03T23:22:21.164Z,51.60
2018-09-03T23:24:48.574Z,65.37
2018-09-03T23:27:16.011Z,59.10
2018-09-03T23:29:43.429Z,59.93
2018-09-03T23:32:10.857Z,66.77
2018-09-03T23:34:38.292Z,66.90
2018-09-03T23:37:05.719Z,66.63
2018-09-03T23:39:33.149Z,62.43
2018-09-03T23:42:00.563Z,66.57
2018-09-03T23:44:28.004Z,70.37
2018-09-03T23:46:55.421Z,70.67
2018-09-03T23:49:22.859Z,76.37
2018-09-03T23:51:50.268Z,70.17
2018-09-03T23:54:17.845Z,64.70
2018-09-03T23:56:45.258Z,65.73
2018-09-03T23:59:12.688Z,71.63
